sensor_id;sensor_type;location;lat;lon;timestamp;temperature;humidity
34279;DHT22;20538;51.528;9.942;2023-06-26T00:02:13;19.40;99.90
34279;DHT22;20538;51.528;9.942;2023-06-26T00:04:38;19.30;99.90
34279;DHT22;20538;51.528;9.942;2023-06-26T00:07:04;19.40;99.90
34279;DHT22;20538;51.528;9.942;2023-06-26T00:09:32;19.30;99.90
34279;DHT22;20538;51.528;9.942;2023-06-26T00:11:58;19.30;99.90
34279;DHT22;20538;51.528;9.942;2023-06-26T00:14:24;19.20;99.90
34279;DHT22;20538;51.528;9.942;2023-06-26T00:16:51;19.20;99.90
34279;DHT22;20538;51.528;9.942;2023-06-26T00:19:17;19.20;99.90
34279;DHT22;20538;51.528;9.942;2023-06-26T00:21:42;19.20;99.90
34279;DHT22;20538;51.528;9.942;2023-06-26T00:24:14;19.20;99.90
34279;DHT22;20538;51.528;9.942;2023-06-26T00:26:40;19.30;99.90
34279;DHT22;20538;51.528;9.942;2023-06-26T00:29:06;19.30;99.90
34279;DHT22;20538;51.528;9.942;2023-06-26T00:31:32;19.30;99.90
34279;DHT22;20538;51.528;9.942;2023-06-26T00:33:57;19.30;99.90
34279;DHT22;20538;51.528;9.942;2023-06-26T00:36:23;19.30;99.90
34279;DHT22;20538;51.528;9.942;2023-06-26T00:38:49;19.30;99.90
34279;DHT22;20538;51.528;9.942;2023-06-26T00:41:15;19.20;99.90
34279;DHT22;20538;51.528;9.942;2023-06-26T00:43:41;19.20;99.90
34279;DHT22;20538;51.528;9.942;2023-06-26T00:46:09;19.10;99.90
34279;DHT22;20538;51.528;9.942;2023-06-26T00:48:36;19.00;99.90
34279;DHT22;20538;51.528;9.942;2023-06-26T00:51:02;19.00;99.90
34279;DHT22;20538;51.528;9.942;2023-06-26T00:53:28;18.90;99.90
34279;DHT22;20538;51.528;9.942;2023-06-26T00:55:54;18.90;99.90
34279;DHT22;20538;51.528;9.942;2023-06-26T00:58:22;18.90;99.90
34279;DHT22;20538;51.528;9.942;2023-06-26T01:00:49;18.80;99.90
34279;DHT22;20538;51.528;9.942;2023-06-26T01:03:14;18.80;99.90
34279;DHT22;20538;51.528;9.942;2023-06-26T01:05:40;18.80;99.90
34279;DHT22;20538;51.528;9.942;2023-06-26T01:08:08;18.70;99.90
34279;DHT22;20538;51.528;9.942;2023-06-26T01:10:34;18.80;99.90
34279;DHT22;20538;51.528;9.942;2023-06-26T01:12:59;18.70;99.90
34279;DHT22;20538;51.528;9.942;2023-06-26T01:15:25;18.60;99.90
34279;DHT22;20538;51.528;9.942;2023-06-26T01:17:51;18.60;99.90
34279;DHT22;20538;51.528;9.942;2023-06-26T01:20:17;18.70;99.90
34279;DHT22;20538;51.528;9.942;2023-06-26T01:28:28;18.50;99.90
34279;DHT22;20538;51.528;9.942;2023-06-26T01:30:55;18.50;99.90
34279;DHT22;20538;51.528;9.942;2023-06-26T01:33:21;18.50;99.90
34279;DHT22;20538;51.528;9.942;2023-06-26T01:35:46;18.40;99.90
34279;DHT22;20538;51.528;9.942;2023-06-26T01:38:17;18.40;99.90
34279;DHT22;20538;51.528;9.942;2023-06-26T01:40:43;18.40;99.90
34279;DHT22;20538;51.528;9.942;2023-06-26T01:46:15;18.40;99.90
34279;DHT22;20538;51.528;9.942;2023-06-26T01:48:50;18.30;99.90
34279;DHT22;20538;51.528;9.942;2023-06-26T01:51:23;18.30;99.90
34279;DHT22;20538;51.528;9.942;2023-06-26T01:53:53;18.20;99.90
34279;DHT22;20538;51.528;9.942;2023-06-26T01:56:22;18.20;99.90
34279;DHT22;20538;51.528;9.942;2023-06-26T01:58:49;18.10;99.90
34279;DHT22;20538;51.528;9.942;2023-06-26T02:01:15;18.10;99.90
34279;DHT22;20538;51.528;9.942;2023-06-26T02:03:41;18.00;99.90
34279;DHT22;20538;51.528;9.942;2023-06-26T02:06:07;18.00;99.90
34279;DHT22;20538;51.528;9.942;2023-06-26T02:08:32;18.00;99.90
34279;DHT22;20538;51.528;9.942;2023-06-26T02:10:58;17.90;99.90
34279;DHT22;20538;51.528;9.942;2023-06-26T02:13:24;17.90;99.90
34279;DHT22;20538;51.528;9.942;2023-06-26T02:15:49;17.80;99.90
34279;DHT22;20538;51.528;9.942;2023-06-26T02:18:15;17.80;99.90
34279;DHT22;20538;51.528;9.942;2023-06-26T02:20:41;17.80;99.90
34279;DHT22;20538;51.528;9.942;2023-06-26T02:23:06;17.70;99.90
34279;DHT22;20538;51.528;9.942;2023-06-26T02:25:32;17.70;99.90
34279;DHT22;20538;51.528;9.942;2023-06-26T02:27:57;17.70;99.90
34279;DHT22;20538;51.528;9.942;2023-06-26T02:30:23;17.70;99.90
34279;DHT22;20538;51.528;9.942;2023-06-26T02:32:48;17.70;99.90
34279;DHT22;20538;51.528;9.942;2023-06-26T02:35:14;17.70;99.90
34279;DHT22;20538;51.528;9.942;2023-06-26T02:37:40;17.70;99.90
34279;DHT22;20538;51.528;9.942;2023-06-26T02:40:06;17.60;99.90
34279;DHT22;20538;51.528;9.942;2023-06-26T02:42:34;17.60;99.90
34279;DHT22;20538;51.528;9.942;2023-06-26T02:45:00;17.50;99.90
34279;DHT22;20538;51.528;9.942;2023-06-26T02:47:25;17.50;99.90
34279;DHT22;20538;51.528;9.942;2023-06-26T02:49:51;17.50;99.90
34279;DHT22;20538;51.528;9.942;2023-06-26T02:52:16;17.50;99.90
34279;DHT22;20538;51.528;9.942;2023-06-26T02:54:42;17.40;99.90
34279;DHT22;20538;51.528;9.942;2023-06-26T02:57:08;17.40;99.90
34279;DHT22;20538;51.528;9.942;2023-06-26T02:59:34;17.40;99.90
34279;DHT22;20538;51.528;9.942;2023-06-26T03:01:59;17.40;99.90
34279;DHT22;20538;51.528;9.942;2023-06-26T03:04:25;17.40;99.90
34279;DHT22;20538;51.528;9.942;2023-06-26T03:06:51;17.40;99.90
34279;DHT22;20538;51.528;9.942;2023-06-26T03:09:16;17.40;99.90
34279;DHT22;20538;51.528;9.942;2023-06-26T03:11:43;17.40;99.90
34279;DHT22;20538;51.528;9.942;2023-06-26T03:14:08;17.40;99.90
34279;DHT22;20538;51.528;9.942;2023-06-26T03:16:34;17.30;99.90
34279;DHT22;20538;51.528;9.942;2023-06-26T03:18:59;17.30;99.90
34279;DHT22;20538;51.528;9.942;2023-06-26T03:21:25;17.30;99.90
34279;DHT22;20538;51.528;9.942;2023-06-26T03:23:51;17.20;99.90
34279;DHT22;20538;51.528;9.942;2023-06-26T03:26:16;17.20;99.90
34279;DHT22;20538;51.528;9.942;2023-06-26T03:28:42;17.20;99.90
34279;DHT22;20538;51.528;9.942;2023-06-26T03:31:08;17.20;99.90
34279;DHT22;20538;51.528;9.942;2023-06-26T03:33:33;17.30;99.90
34279;DHT22;20538;51.528;9.942;2023-06-26T03:35:59;17.30;99.90
34279;DHT22;20538;51.528;9.942;2023-06-26T03:38:24;17.40;99.90
34279;DHT22;20538;51.528;9.942;2023-06-26T03:40:51;17.40;99.90
34279;DHT22;20538;51.528;9.942;2023-06-26T03:43:17;17.40;99.90
34279;DHT22;20538;51.528;9.942;2023-06-26T03:45:43;17.30;99.90
34279;DHT22;20538;51.528;9.942;2023-06-26T03:48:08;17.30;99.90
34279;DHT22;20538;51.528;9.942;2023-06-26T03:50:34;17.40;99.90
34279;DHT22;20538;51.528;9.942;2023-06-26T03:52:59;17.50;99.90
34279;DHT22;20538;51.528;9.942;2023-06-26T03:55:25;17.60;99.90
34279;DHT22;20538;51.528;9.942;2023-06-26T03:57:51;17.70;99.90
34279;DHT22;20538;51.528;9.942;2023-06-26T04:00:17;17.80;99.90
34279;DHT22;20538;51.528;9.942;2023-06-26T04:02:43;17.80;99.90
34279;DHT22;20538;51.528;9.942;2023-06-26T04:05:08;17.80;99.90
34279;DHT22;20538;51.528;9.942;2023-06-26T04:07:34;17.80;99.90
34279;DHT22;20538;51.528;9.942;2023-06-26T04:10:01;17.90;99.90
34279;DHT22;20538;51.528;9.942;2023-06-26T04:12:27;17.90;99.90
34279;DHT22;20538;51.528;9.942;2023-06-26T04:14:52;18.00;99.90
34279;DHT22;20538;51.528;9.942;2023-06-26T04:17:18;18.00;99.90
34279;DHT22;20538;51.528;9.942;2023-06-26T04:19:44;18.10;99.90
34279;DHT22;20538;51.528;9.942;2023-06-26T04:22:09;18.10;99.90
34279;DHT22;20538;51.528;9.942;2023-06-26T04:24:35;18.20;99.90
34279;DHT22;20538;51.528;9.942;2023-06-26T04:27:00;18.30;99.90
34279;DHT22;20538;51.528;9.942;2023-06-26T04:29:26;18.20;99.90
34279;DHT22;20538;51.528;9.942;2023-06-26T04:31:53;18.30;99.90
34279;DHT22;20538;51.528;9.942;2023-06-26T04:34:24;18.50;99.90
34279;DHT22;20538;51.528;9.942;2023-06-26T04:36:50;18.70;99.90
34279;DHT22;20538;51.528;9.942;2023-06-26T04:39:16;20.10;99.90
34279;DHT22;20538;51.528;9.942;2023-06-26T04:41:42;21.50;99.90
34279;DHT22;20538;51.528;9.942;2023-06-26T04:44:08;22.50;99.90
34279;DHT22;20538;51.528;9.942;2023-06-26T04:46:33;23.30;99.90
34279;DHT22;20538;51.528;9.942;2023-06-26T04:48:59;23.90;99.80
34279;DHT22;20538;51.528;9.942;2023-06-26T04:51:26;24.50;98.40
34279;DHT22;20538;51.528;9.942;2023-06-26T04:53:52;24.70;97.80
34279;DHT22;20538;51.528;9.942;2023-06-26T04:56:18;24.90;97.20
34279;DHT22;20538;51.528;9.942;2023-06-26T04:58:43;25.10;96.60
34279;DHT22;20538;51.528;9.942;2023-06-26T05:01:09;25.40;96.50
34279;DHT22;20538;51.528;9.942;2023-06-26T05:03:35;25.40;96.30
34279;DHT22;20538;51.528;9.942;2023-06-26T05:06:02;25.70;95.40
34279;DHT22;20538;51.528;9.942;2023-06-26T05:08:27;25.80;94.80
34279;DHT22;20538;51.528;9.942;2023-06-26T05:10:53;25.80;94.30
34279;DHT22;20538;51.528;9.942;2023-06-26T05:13:23;25.90;94.90
34279;DHT22;20538;51.528;9.942;2023-06-26T05:15:49;26.10;94.50
34279;DHT22;20538;51.528;9.942;2023-06-26T05:18:14;26.30;94.70
34279;DHT22;20538;51.528;9.942;2023-06-26T05:20:40;26.40;94.60
34279;DHT22;20538;51.528;9.942;2023-06-26T05:23:06;26.60;93.80
34279;DHT22;20538;51.528;9.942;2023-06-26T05:25:32;26.70;93.10
34279;DHT22;20538;51.528;9.942;2023-06-26T05:28:00;26.80;93.40
34279;DHT22;20538;51.528;9.942;2023-06-26T05:30:26;26.90;93.30
34279;DHT22;20538;51.528;9.942;2023-06-26T05:32:53;27.30;92.50
34279;DHT22;20538;51.528;9.942;2023-06-26T05:35:20;27.20;92.80
34279;DHT22;20538;51.528;9.942;2023-06-26T05:37:49;27.50;92.20
34279;DHT22;20538;51.528;9.942;2023-06-26T05:40:16;27.70;91.80
34279;DHT22;20538;51.528;9.942;2023-06-26T05:42:42;27.90;92.10
34279;DHT22;20538;51.528;9.942;2023-06-26T05:45:08;28.00;91.90
34279;DHT22;20538;51.528;9.942;2023-06-26T05:47:34;27.80;92.10
34279;DHT22;20538;51.528;9.942;2023-06-26T05:50:00;28.00;91.70
34279;DHT22;20538;51.528;9.942;2023-06-26T05:52:26;28.00;92.50
34279;DHT22;20538;51.528;9.942;2023-06-26T05:54:52;27.70;92.30
34279;DHT22;20538;51.528;9.942;2023-06-26T05:57:18;28.00;92.20
34279;DHT22;20538;51.528;9.942;2023-06-26T05:59:44;28.30;92.60
34279;DHT22;20538;51.528;9.942;2023-06-26T06:02:11;28.60;92.10
34279;DHT22;20538;51.528;9.942;2023-06-26T06:04:37;28.30;92.30
34279;DHT22;20538;51.528;9.942;2023-06-26T06:07:04;27.10;93.60
34279;DHT22;20538;51.528;9.942;2023-06-26T06:09:30;26.10;94.40
34279;DHT22;20538;51.528;9.942;2023-06-26T06:11:55;25.40;96.10
34279;DHT22;20538;51.528;9.942;2023-06-26T06:14:21;25.60;96.20
34279;DHT22;20538;51.528;9.942;2023-06-26T06:16:47;25.90;96.60
34279;DHT22;20538;51.528;9.942;2023-06-26T06:19:12;26.60;95.60
34279;DHT22;20538;51.528;9.942;2023-06-26T06:21:39;26.40;95.80
34279;DHT22;20538;51.528;9.942;2023-06-26T06:24:05;26.50;95.40
34279;DHT22;20538;51.528;9.942;2023-06-26T06:26:32;26.70;94.30
34279;DHT22;20538;51.528;9.942;2023-06-26T06:28:58;27.30;94.30
34279;DHT22;20538;51.528;9.942;2023-06-26T06:31:24;27.20;94.20
34279;DHT22;20538;51.528;9.942;2023-06-26T06:33:49;27.10;94.30
34279;DHT22;20538;51.528;9.942;2023-06-26T06:36:15;27.10;94.40
34279;DHT22;20538;51.528;9.942;2023-06-26T06:38:44;26.90;93.80
34279;DHT22;20538;51.528;9.942;2023-06-26T06:41:09;26.80;94.10
34279;DHT22;20538;51.528;9.942;2023-06-26T06:43:35;26.80;94.60
34279;DHT22;20538;51.528;9.942;2023-06-26T06:46:01;26.70;93.10
34279;DHT22;20538;51.528;9.942;2023-06-26T06:48:27;27.00;92.30
34279;DHT22;20538;51.528;9.942;2023-06-26T06:50:55;27.00;93.70
34279;DHT22;20538;51.528;9.942;2023-06-26T06:53:21;27.00;93.00
34279;DHT22;20538;51.528;9.942;2023-06-26T06:55:47;27.00;93.60
34279;DHT22;20538;51.528;9.942;2023-06-26T06:58:12;26.50;92.70
34279;DHT22;20538;51.528;9.942;2023-06-26T07:00:38;26.60;93.70
34279;DHT22;20538;51.528;9.942;2023-06-26T07:03:07;26.80;93.30
34279;DHT22;20538;51.528;9.942;2023-06-26T07:05:32;26.80;93.60
34279;DHT22;20538;51.528;9.942;2023-06-26T07:07:58;27.00;92.10
34279;DHT22;20538;51.528;9.942;2023-06-26T07:10:23;27.10;92.50
34279;DHT22;20538;51.528;9.942;2023-06-26T07:12:49;27.00;92.10
34279;DHT22;20538;51.528;9.942;2023-06-26T07:15:15;27.10;92.40
34279;DHT22;20538;51.528;9.942;2023-06-26T07:17:40;27.20;92.40
34279;DHT22;20538;51.528;9.942;2023-06-26T07:20:06;26.90;92.50
34279;DHT22;20538;51.528;9.942;2023-06-26T07:22:34;26.80;92.20
34279;DHT22;20538;51.528;9.942;2023-06-26T07:25:00;26.70;91.30
34279;DHT22;20538;51.528;9.942;2023-06-26T07:27:26;26.60;91.80
34279;DHT22;20538;51.528;9.942;2023-06-26T07:29:51;26.50;92.60
34279;DHT22;20538;51.528;9.942;2023-06-26T07:32:17;26.60;92.40
34279;DHT22;20538;51.528;9.942;2023-06-26T07:34:42;26.60;91.30
34279;DHT22;20538;51.528;9.942;2023-06-26T07:37:08;26.30;91.70
34279;DHT22;20538;51.528;9.942;2023-06-26T07:39:34;26.30;91.70
34279;DHT22;20538;51.528;9.942;2023-06-26T07:41:59;26.40;91.90
34279;DHT22;20538;51.528;9.942;2023-06-26T07:44:25;26.30;92.60
34279;DHT22;20538;51.528;9.942;2023-06-26T07:46:51;26.40;92.20
34279;DHT22;20538;51.528;9.942;2023-06-26T07:49:16;26.50;91.60
34279;DHT22;20538;51.528;9.942;2023-06-26T07:51:42;26.40;93.30
34279;DHT22;20538;51.528;9.942;2023-06-26T07:54:08;26.70;92.30
34279;DHT22;20538;51.528;9.942;2023-06-26T07:59:22;26.90;91.00
34279;DHT22;20538;51.528;9.942;2023-06-26T08:01:51;26.90;91.60
34279;DHT22;20538;51.528;9.942;2023-06-26T08:04:22;27.00;91.10
34279;DHT22;20538;51.528;9.942;2023-06-26T08:06:56;27.00;91.10
34279;DHT22;20538;51.528;9.942;2023-06-26T08:09:24;27.10;90.80
34279;DHT22;20538;51.528;9.942;2023-06-26T08:11:50;27.30;91.50
34279;DHT22;20538;51.528;9.942;2023-06-26T08:14:17;27.40;90.70
34279;DHT22;20538;51.528;9.942;2023-06-26T08:16:43;27.50;91.10
34279;DHT22;20538;51.528;9.942;2023-06-26T08:19:10;27.80;90.90
34279;DHT22;20538;51.528;9.942;2023-06-26T08:21:35;28.00;89.40
34279;DHT22;20538;51.528;9.942;2023-06-26T08:24:01;27.90;91.10
34279;DHT22;20538;51.528;9.942;2023-06-26T08:26:27;27.60;91.20
34279;DHT22;20538;51.528;9.942;2023-06-26T08:28:53;27.50;91.40
34279;DHT22;20538;51.528;9.942;2023-06-26T08:31:19;27.60;92.30
34279;DHT22;20538;51.528;9.942;2023-06-26T08:33:46;27.80;91.20
34279;DHT22;20538;51.528;9.942;2023-06-26T08:36:12;27.90;90.20
34279;DHT22;20538;51.528;9.942;2023-06-26T08:38:37;28.00;89.20
34279;DHT22;20538;51.528;9.942;2023-06-26T08:41:05;27.70;90.40
34279;DHT22;20538;51.528;9.942;2023-06-26T08:43:31;27.70;90.60
34279;DHT22;20538;51.528;9.942;2023-06-26T08:45:57;27.50;90.70
34279;DHT22;20538;51.528;9.942;2023-06-26T08:48:23;27.50;90.30
34279;DHT22;20538;51.528;9.942;2023-06-26T08:50:52;27.40;85.30
34279;DHT22;20538;51.528;9.942;2023-06-26T08:55:57;27.80;85.20
34279;DHT22;20538;51.528;9.942;2023-06-26T08:58:23;27.60;85.10
34279;DHT22;20538;51.528;9.942;2023-06-26T09:00:49;27.50;85.00
34279;DHT22;20538;51.528;9.942;2023-06-26T09:03:15;27.50;81.20
34279;DHT22;20538;51.528;9.942;2023-06-26T09:05:42;27.10;84.20
34279;DHT22;20538;51.528;9.942;2023-06-26T09:08:08;27.20;84.40
34279;DHT22;20538;51.528;9.942;2023-06-26T09:10:33;27.80;85.00
34279;DHT22;20538;51.528;9.942;2023-06-26T09:12:59;28.10;85.20
34279;DHT22;20538;51.528;9.942;2023-06-26T09:15:27;28.30;80.00
34279;DHT22;20538;51.528;9.942;2023-06-26T09:17:57;28.30;83.70
34279;DHT22;20538;51.528;9.942;2023-06-26T09:20:27;28.50;81.50
34279;DHT22;20538;51.528;9.942;2023-06-26T09:22:53;28.50;81.50
34279;DHT22;20538;51.528;9.942;2023-06-26T09:25:20;28.60;81.50
34279;DHT22;20538;51.528;9.942;2023-06-26T09:27:48;28.50;82.90
34279;DHT22;20538;51.528;9.942;2023-06-26T09:30:16;28.60;82.30
34279;DHT22;20538;51.528;9.942;2023-06-26T09:32:42;28.50;82.60
34279;DHT22;20538;51.528;9.942;2023-06-26T09:35:08;28.60;79.50
34279;DHT22;20538;51.528;9.942;2023-06-26T09:37:34;28.30;78.10
34279;DHT22;20538;51.528;9.942;2023-06-26T09:40:00;28.60;80.10
34279;DHT22;20538;51.528;9.942;2023-06-26T09:42:26;28.30;78.70
34279;DHT22;20538;51.528;9.942;2023-06-26T09:44:52;28.10;80.20
34279;DHT22;20538;51.528;9.942;2023-06-26T09:47:20;27.90;79.00
34279;DHT22;20538;51.528;9.942;2023-06-26T09:49:46;27.90;79.70
34279;DHT22;20538;51.528;9.942;2023-06-26T09:52:16;27.90;80.60
34279;DHT22;20538;51.528;9.942;2023-06-26T09:54:46;28.00;80.80
34279;DHT22;20538;51.528;9.942;2023-06-26T09:57:18;28.50;82.10
34279;DHT22;20538;51.528;9.942;2023-06-26T09:59:48;28.20;80.40
34279;DHT22;20538;51.528;9.942;2023-06-26T10:02:17;28.30;80.20
34279;DHT22;20538;51.528;9.942;2023-06-26T10:04:42;28.70;83.20
34279;DHT22;20538;51.528;9.942;2023-06-26T10:07:11;28.80;83.60
34279;DHT22;20538;51.528;9.942;2023-06-26T10:09:41;28.80;83.70
34279;DHT22;20538;51.528;9.942;2023-06-26T10:14:36;28.60;81.50
34279;DHT22;20538;51.528;9.942;2023-06-26T10:17:05;28.30;84.80
34279;DHT22;20538;51.528;9.942;2023-06-26T10:19:33;28.00;83.10
34279;DHT22;20538;51.528;9.942;2023-06-26T10:22:00;27.80;83.50
34279;DHT22;20538;51.528;9.942;2023-06-26T10:24:29;28.00;83.00
34279;DHT22;20538;51.528;9.942;2023-06-26T10:27:05;28.10;82.20
34279;DHT22;20538;51.528;9.942;2023-06-26T10:29:35;28.40;84.40
34279;DHT22;20538;51.528;9.942;2023-06-26T10:32:03;28.40;83.90
34279;DHT22;20538;51.528;9.942;2023-06-26T10:34:30;28.30;84.60
34279;DHT22;20538;51.528;9.942;2023-06-26T10:36:59;28.20;85.00
34279;DHT22;20538;51.528;9.942;2023-06-26T10:39:26;28.30;84.30
34279;DHT22;20538;51.528;9.942;2023-06-26T10:41:54;28.00;84.20
34279;DHT22;20538;51.528;9.942;2023-06-26T10:44:24;27.60;85.30
34279;DHT22;20538;51.528;9.942;2023-06-26T10:46:53;27.20;85.30
34279;DHT22;20538;51.528;9.942;2023-06-26T10:49:20;27.20;84.20
34279;DHT22;20538;51.528;9.942;2023-06-26T10:51:50;27.40;83.90
34279;DHT22;20538;51.528;9.942;2023-06-26T10:54:19;27.50;84.70
34279;DHT22;20538;51.528;9.942;2023-06-26T10:56:46;27.60;86.90
34279;DHT22;20538;51.528;9.942;2023-06-26T10:59:16;27.20;86.30
34279;DHT22;20538;51.528;9.942;2023-06-26T11:01:43;27.50;84.90
34279;DHT22;20538;51.528;9.942;2023-06-26T11:04:09;27.10;84.70
34279;DHT22;20538;51.528;9.942;2023-06-26T11:06:37;27.20;86.60
34279;DHT22;20538;51.528;9.942;2023-06-26T11:09:06;26.80;85.60
34279;DHT22;20538;51.528;9.942;2023-06-26T11:14:19;26.00;86.40
34279;DHT22;20538;51.528;9.942;2023-06-26T11:16:45;25.50;86.90
34279;DHT22;20538;51.528;9.942;2023-06-26T11:19:14;24.90;89.00
34279;DHT22;20538;51.528;9.942;2023-06-26T11:21:40;24.70;90.50
34279;DHT22;20538;51.528;9.942;2023-06-26T11:24:07;24.40;92.10
34279;DHT22;20538;51.528;9.942;2023-06-26T11:26:44;20.80;99.90
34279;DHT22;20538;51.528;9.942;2023-06-26T11:29:10;20.20;99.90
34279;DHT22;20538;51.528;9.942;2023-06-26T11:31:41;19.80;99.90
34279;DHT22;20538;51.528;9.942;2023-06-26T11:34:08;19.40;99.90
34279;DHT22;20538;51.528;9.942;2023-06-26T11:36:36;19.70;99.90
34279;DHT22;20538;51.528;9.942;2023-06-26T11:39:05;19.90;99.90
34279;DHT22;20538;51.528;9.942;2023-06-26T11:41:38;20.40;99.90
34279;DHT22;20538;51.528;9.942;2023-06-26T11:44:09;20.70;99.90
34279;DHT22;20538;51.528;9.942;2023-06-26T11:46:36;19.90;99.90
34279;DHT22;20538;51.528;9.942;2023-06-26T11:49:06;20.60;99.90
34279;DHT22;20538;51.528;9.942;2023-06-26T11:51:33;20.10;99.90
34279;DHT22;20538;51.528;9.942;2023-06-26T11:54:01;20.30;99.90
34279;DHT22;20538;51.528;9.942;2023-06-26T11:56:28;20.80;99.90
34279;DHT22;20538;51.528;9.942;2023-06-26T11:59:01;20.70;99.90
34279;DHT22;20538;51.528;9.942;2023-06-26T12:01:36;20.40;99.90
34279;DHT22;20538;51.528;9.942;2023-06-26T12:04:07;21.10;99.90
34279;DHT22;20538;51.528;9.942;2023-06-26T12:06:38;21.60;99.90
34279;DHT22;20538;51.528;9.942;2023-06-26T12:09:07;21.80;99.90
34279;DHT22;20538;51.528;9.942;2023-06-26T12:11:35;21.70;99.90
34279;DHT22;20538;51.528;9.942;2023-06-26T12:14:02;21.40;99.90
34279;DHT22;20538;51.528;9.942;2023-06-26T12:16:30;21.50;99.90
34279;DHT22;20538;51.528;9.942;2023-06-26T12:19:14;22.20;99.90
34279;DHT22;20538;51.528;9.942;2023-06-26T12:24:17;22.50;99.90
34279;DHT22;20538;51.528;9.942;2023-06-26T12:26:44;22.30;99.90
34279;DHT22;20538;51.528;9.942;2023-06-26T12:29:14;22.40;99.90
34279;DHT22;20538;51.528;9.942;2023-06-26T12:31:45;21.80;99.90
34279;DHT22;20538;51.528;9.942;2023-06-26T12:34:12;22.00;99.90
34279;DHT22;20538;51.528;9.942;2023-06-26T12:36:48;22.50;99.90
34279;DHT22;20538;51.528;9.942;2023-06-26T12:39:16;23.10;99.90
34279;DHT22;20538;51.528;9.942;2023-06-26T12:42:01;23.60;99.90
34279;DHT22;20538;51.528;9.942;2023-06-26T12:44:31;24.10;99.90
34279;DHT22;20538;51.528;9.942;2023-06-26T12:47:01;24.20;99.90
34279;DHT22;20538;51.528;9.942;2023-06-26T12:49:34;24.40;99.90
34279;DHT22;20538;51.528;9.942;2023-06-26T12:52:03;24.20;99.90
34279;DHT22;20538;51.528;9.942;2023-06-26T12:54:29;24.00;99.90
34279;DHT22;20538;51.528;9.942;2023-06-26T12:57:04;24.20;99.90
34279;DHT22;20538;51.528;9.942;2023-06-26T12:59:34;24.50;99.90
34279;DHT22;20538;51.528;9.942;2023-06-26T13:02:00;24.70;99.90
34279;DHT22;20538;51.528;9.942;2023-06-26T13:04:26;24.70;99.90
34279;DHT22;20538;51.528;9.942;2023-06-26T13:06:52;24.80;99.90
34279;DHT22;20538;51.528;9.942;2023-06-26T13:09:20;25.20;99.90
34279;DHT22;20538;51.528;9.942;2023-06-26T13:11:46;25.10;99.90
34279;DHT22;20538;51.528;9.942;2023-06-26T13:14:11;25.30;99.90
34279;DHT22;20538;51.528;9.942;2023-06-26T13:16:38;25.30;99.40
34279;DHT22;20538;51.528;9.942;2023-06-26T13:19:03;25.50;99.50
34279;DHT22;20538;51.528;9.942;2023-06-26T13:21:29;25.60;97.90
34279;DHT22;20538;51.528;9.942;2023-06-26T13:23:55;25.50;97.70
34279;DHT22;20538;51.528;9.942;2023-06-26T13:26:22;25.50;97.80
34279;DHT22;20538;51.528;9.942;2023-06-26T13:28:48;25.90;98.90
34279;DHT22;20538;51.528;9.942;2023-06-26T13:31:14;26.00;97.80
34279;DHT22;20538;51.528;9.942;2023-06-26T13:33:40;26.00;96.50
34279;DHT22;20538;51.528;9.942;2023-06-26T13:36:31;25.70;96.40
34279;DHT22;20538;51.528;9.942;2023-06-26T13:38:59;25.70;98.00
34279;DHT22;20538;51.528;9.942;2023-06-26T13:41:27;25.60;96.80
34279;DHT22;20538;51.528;9.942;2023-06-26T13:44:02;25.40;96.90
34279;DHT22;20538;51.528;9.942;2023-06-26T13:46:27;25.90;96.00
34279;DHT22;20538;51.528;9.942;2023-06-26T13:49:08;25.90;97.40
34279;DHT22;20538;51.528;9.942;2023-06-26T13:51:34;26.00;96.80
34279;DHT22;20538;51.528;9.942;2023-06-26T13:53:59;26.00;96.60
34279;DHT22;20538;51.528;9.942;2023-06-26T13:56:26;26.20;96.10
34279;DHT22;20538;51.528;9.942;2023-06-26T13:58:51;26.40;97.90
34279;DHT22;20538;51.528;9.942;2023-06-26T14:01:17;26.50;95.70
34279;DHT22;20538;51.528;9.942;2023-06-26T14:03:43;26.30;95.10
34279;DHT22;20538;51.528;9.942;2023-06-26T14:06:09;26.30;93.90
34279;DHT22;20538;51.528;9.942;2023-06-26T14:08:35;26.70;92.90
34279;DHT22;20538;51.528;9.942;2023-06-26T14:11:01;26.10;93.20
34279;DHT22;20538;51.528;9.942;2023-06-26T14:13:26;26.60;92.70
34279;DHT22;20538;51.528;9.942;2023-06-26T14:15:53;26.30;92.80
34279;DHT22;20538;51.528;9.942;2023-06-26T14:18:18;26.10;92.00
34279;DHT22;20538;51.528;9.942;2023-06-26T14:20:44;26.40;92.80
34279;DHT22;20538;51.528;9.942;2023-06-26T14:23:13;26.00;93.40
34279;DHT22;20538;51.528;9.942;2023-06-26T14:25:41;26.10;93.00
34279;DHT22;20538;51.528;9.942;2023-06-26T14:28:07;26.10;92.90
34279;DHT22;20538;51.528;9.942;2023-06-26T14:30:36;26.00;93.20
34279;DHT22;20538;51.528;9.942;2023-06-26T14:33:01;25.90;91.80
34279;DHT22;20538;51.528;9.942;2023-06-26T14:35:30;26.00;92.90
34279;DHT22;20538;51.528;9.942;2023-06-26T14:38:07;25.70;91.70
34279;DHT22;20538;51.528;9.942;2023-06-26T14:40:32;26.20;93.20
34279;DHT22;20538;51.528;9.942;2023-06-26T14:42:58;26.00;90.20
34279;DHT22;20538;51.528;9.942;2023-06-26T14:45:23;25.90;90.80
34279;DHT22;20538;51.528;9.942;2023-06-26T14:47:49;26.20;91.10
34279;DHT22;20538;51.528;9.942;2023-06-26T14:50:15;26.30;90.40
34279;DHT22;20538;51.528;9.942;2023-06-26T14:52:43;25.90;87.00
34279;DHT22;20538;51.528;9.942;2023-06-26T14:55:09;25.80;85.90
34279;DHT22;20538;51.528;9.942;2023-06-26T14:57:35;25.70;87.50
34279;DHT22;20538;51.528;9.942;2023-06-26T15:00:00;25.60;86.90
34279;DHT22;20538;51.528;9.942;2023-06-26T15:02:26;25.70;85.90
34279;DHT22;20538;51.528;9.942;2023-06-26T15:04:52;25.70;86.50
34279;DHT22;20538;51.528;9.942;2023-06-26T15:07:18;25.70;83.80
34279;DHT22;20538;51.528;9.942;2023-06-26T15:09:44;25.70;84.80
34279;DHT22;20538;51.528;9.942;2023-06-26T15:12:12;25.60;81.90
34279;DHT22;20538;51.528;9.942;2023-06-26T15:14:39;25.60;84.00
34279;DHT22;20538;51.528;9.942;2023-06-26T15:17:05;25.70;81.30
34279;DHT22;20538;51.528;9.942;2023-06-26T15:19:31;25.70;80.00
34279;DHT22;20538;51.528;9.942;2023-06-26T15:21:56;25.60;80.00
34279;DHT22;20538;51.528;9.942;2023-06-26T15:24:22;25.90;79.20
34279;DHT22;20538;51.528;9.942;2023-06-26T15:26:48;25.90;78.80
34279;DHT22;20538;51.528;9.942;2023-06-26T15:29:13;25.80;81.10
34279;DHT22;20538;51.528;9.942;2023-06-26T15:31:40;25.80;79.70
34279;DHT22;20538;51.528;9.942;2023-06-26T15:34:06;25.60;78.90
34279;DHT22;20538;51.528;9.942;2023-06-26T15:36:32;25.80;80.40
34279;DHT22;20538;51.528;9.942;2023-06-26T15:38:57;25.90;79.00
34279;DHT22;20538;51.528;9.942;2023-06-26T15:41:23;26.10;79.30
34279;DHT22;20538;51.528;9.942;2023-06-26T15:43:49;26.10;80.60
34279;DHT22;20538;51.528;9.942;2023-06-26T15:46:14;25.70;80.50
34279;DHT22;20538;51.528;9.942;2023-06-26T15:48:40;25.70;79.10
34279;DHT22;20538;51.528;9.942;2023-06-26T15:51:06;25.40;80.40